Time;durP1;ratioP1;P1;durP2;ratioP2;P2;SDS_P1;SDS_P2;PMS_P1;PMS_P2;Temp;Humidity;BMP_temperature;BMP_pressure;BME280_temperature;BME280_humidity;BME280_pressure;Samples;Min_cycle;Max_cycle;Signal;HPM_P1;HPM_P2
2022/07/29 00:01:43;;;;;;;14.30;5.90;;;;;;;17.65;58.47;99322.92;106162;1274;97771;-66
2022/07/29 00:04:11;;;;;;;14.70;5.30;;;;;;;17.63;58.68;99319.55;106126;1274;108859;-66
2022/07/29 00:06:41;;;;;;;16.10;5.80;;;;;;;17.62;58.79;99321.23;106039;1275;97888;-66
2022/07/29 00:09:09;;;;;;;13.50;5.50;;;;;;;17.62;58.56;99318.95;106038;1274;97881;-65
2022/07/29 00:11:37;;;;;;;13.10;5.90;;;;;;;17.60;58.82;99315.67;106056;1274;111354;-66
2022/07/29 00:14:06;;;;;;;11.60;5.40;;;;;;;17.60;58.87;99315.77;105995;1274;97984;-66
2022/07/29 00:16:35;;;;;;;14.60;5.60;;;;;;;17.58;58.79;99314.08;105929;1274;108376;-66
2022/07/29 00:19:04;;;;;;;11.30;5.20;;;;;;;17.58;58.96;99315.21;106096;1274;96290;-66
2022/07/29 00:21:34;;;;;;;22.40;5.50;;;;;;;17.56;58.96;99314.83;106197;1274;97953;-68
2022/07/29 00:24:03;;;;;;;13.10;5.30;;;;;;;17.54;58.96;99315.75;106165;1274;111899;-67
2022/07/29 00:26:31;;;;;;;13.60;5.40;;;;;;;17.52;59.04;99315.54;106142;1274;97857;-66
2022/07/29 00:29:02;;;;;;;16.50;6.20;;;;;;;17.52;59.21;99315.59;106113;1274;108375;-65
2022/07/29 00:31:50;;;;;;;14.60;5.50;;;;;;;17.50;59.20;99319.70;105978;1274;98257;-65
2022/07/29 00:37:05;;;;;;;13.80;5.10;;;;;;;17.49;59.26;99322.15;106048;1273;111934;-65
2022/07/29 00:39:34;;;;;;;13.40;5.40;;;;;;;17.48;59.18;99322.44;106057;1274;98471;-65
2022/07/29 00:42:05;;;;;;;14.20;5.80;;;;;;;17.48;59.04;99323.52;106119;1274;108986;-65
2022/07/29 00:44:37;;;;;;;13.80;5.80;;;;;;;17.47;59.28;99318.25;106107;1274;97957;-66
2022/07/29 00:47:07;;;;;;;;;;;;;;;17.45;59.25;99313.90;106099;1274;97979;-65
2022/07/29 00:49:38;;;;;;;20.40;7.20;;;;;;;17.42;59.39;99314.77;106078;1274;111475;-66
2022/07/29 00:52:09;;;;;;;22.30;7.60;;;;;;;17.41;59.22;99315.02;106095;1274;95296;-65
2022/07/29 00:54:39;;;;;;;21.60;7.60;;;;;;;17.40;59.27;99314.04;105958;1274;107646;-65
2022/07/29 00:57:12;;;;;;;21.40;7.20;;;;;;;17.38;59.31;99314.05;106182;1274;97905;-65
2022/07/29 00:59:41;;;;;;;19.80;7.50;;;;;;;17.36;59.28;99306.93;106141;1274;97760;-68
2022/07/29 01:02:09;;;;;;;20.10;6.70;;;;;;;17.34;59.09;99311.27;106029;1274;111589;-65
2022/07/29 01:04:39;;;;;;;16.80;7.50;;;;;;;17.32;59.24;99311.63;106123;1274;98005;-65
2022/07/29 01:07:07;;;;;;;19.70;6.80;;;;;;;17.30;59.38;99311.77;106020;1274;107739;-63
2022/07/29 01:09:38;;;;;;;16.80;6.70;;;;;;;17.29;59.34;99311.53;106043;1274;96412;-66
2022/07/29 01:12:18;;;;;;;19.40;6.70;;;;;;;17.28;59.07;99315.08;106040;1274;97788;-65
2022/07/29 01:14:48;;;;;;;17.40;5.10;;;;;;;17.26;59.34;99316.33;106046;1274;111485;-66
2022/07/29 01:17:22;;;;;;;14.40;5.50;;;;;;;17.23;59.16;99313.54;106096;1274;96436;-66
2022/07/29 01:20:03;;;;;;;19.00;6.00;;;;;;;17.22;59.20;99313.65;106112;1274;106141;-67
2022/07/29 01:22:34;;;;;;;11.00;4.90;;;;;;;17.20;59.12;99311.20;106103;1274;97994;-65
2022/07/29 01:25:12;;;;;;;14.30;5.10;;;;;;;17.18;59.17;99314.20;106127;1274;96416;-65
2022/07/29 01:27:52;;;;;;;10.20;4.50;;;;;;;17.17;59.21;99311.58;106110;1274;110352;-65
2022/07/29 01:30:24;;;;;;;17.30;5.20;;;;;;;17.16;59.17;99303.48;106174;1274;97899;-65
2022/07/29 01:33:48;;;;;;;19.60;5.60;;;;;;;17.15;59.26;99304.65;106038;1275;108385;-66
2022/07/29 01:36:07;;;;;;;13.40;5.20;;;;;;;17.12;59.50;99303.14;106084;1274;97889;-65
2022/07/29 01:38:39;;;;;;;15.60;5.60;;;;;;;17.10;59.19;99300.84;106036;1274;97953;-66
2022/07/29 01:41:14;;;;;;;17.50;5.80;;;;;;;17.08;59.32;99300.61;106028;1274;111093;-65
2022/07/29 01:43:57;;;;;;;14.50;6.10;;;;;;;17.06;59.42;99300.98;106031;1274;98175;-65
2022/07/29 01:46:35;;;;;;;16.70;5.50;;;;;;;17.04;59.43;99302.27;106113;1273;107537;-66
2022/07/29 01:49:21;;;;;;;19.50;6.30;;;;;;;17.01;59.29;99300.59;106003;1274;97969;-64
2022/07/29 01:52:00;;;;;;;17.30;6.30;;;;;;;16.98;59.18;99303.19;106063;1274;97973;-65
2022/07/29 01:54:37;;;;;;;19.20;6.40;;;;;;;16.94;59.29;99300.30;106076;1274;111469;-62
2022/07/29 01:57:09;;;;;;;16.90;6.00;;;;;;;16.92;59.50;99301.46;106110;1274;97637;-65
2022/07/29 01:59:40;;;;;;;18.60;6.50;;;;;;;16.89;59.28;99306.55;105976;1274;108008;-67
2022/07/29 02:02:12;;;;;;;18.40;6.10;;;;;;;16.85;59.37;99301.89;106019;1274;97832;-67
2022/07/29 02:04:42;;;;;;;17.00;6.10;;;;;;;16.82;59.29;99305.91;106055;1274;96422;-66
2022/07/29 02:07:15;;;;;;;16.70;6.20;;;;;;;16.79;59.38;99305.69;106099;1274;111458;-65
2022/07/29 02:09:45;;;;;;;19.40;6.60;;;;;;;16.77;59.53;99306.05;106063;1274;97886;-66
2022/07/29 02:12:17;;;;;;;17.30;6.30;;;;;;;16.76;59.56;99299.52;106055;1274;107728;-65
2022/07/29 02:14:48;;;;;;;19.20;7.50;;;;;;;16.74;59.66;99299.74;106015;1274;97941;-68
2022/07/29 02:17:23;;;;;;;20.30;8.20;;;;;;;16.72;59.49;99303.33;106106;1274;97945;-68
2022/07/29 02:19:56;;;;;;;20.90;6.60;;;;;;;16.70;59.67;99304.23;106164;1275;111833;-66
2022/07/29 02:22:28;;;;;;;18.90;6.80;;;;;;;16.68;59.66;99305.88;106224;1274;97764;-66
2022/07/29 02:24:58;;;;;;;19.40;6.20;;;;;;;16.65;59.55;99300.15;106170;1274;107710;-65
2022/07/29 02:27:29;;;;;;;19.80;7.20;;;;;;;16.63;59.66;99294.27;106104;1274;97930;-66
2022/07/29 02:30:00;;;;;;;16.90;5.40;;;;;;;16.63;59.67;99288.98;106025;1274;95284;-65
2022/07/29 02:32:31;;;;;;;12.70;4.60;;;;;;;16.62;59.70;99289.38;106070;1274;111720;-65
2022/07/29 02:35:01;;;;;;;13.50;5.40;;;;;;;16.61;59.62;99286.20;106150;1274;97806;-65
2022/07/29 02:37:30;;;;;;;12.50;4.40;;;;;;;16.61;59.70;99285.56;106095;1274;108011;-64
2022/07/29 02:40:03;;;;;;;14.50;4.70;;;;;;;16.60;59.78;99286.83;106108;1274;97973;-66
2022/07/29 02:42:32;;;;;;;12.20;4.80;;;;;;;16.59;59.75;99292.71;106148;1274;97973;-65
2022/07/29 02:45:00;;;;;;;19.00;4.30;;;;;;;16.58;59.75;99292.28;106068;1274;111992;-65
2022/07/29 02:47:47;;;;;;;17.60;4.80;;;;;;;16.56;59.60;99291.02;106197;1274;97758;-65
2022/07/29 02:50:32;;;;;;;14.00;4.50;;;;;;;16.54;59.74;99289.08;106100;1274;108422;-63
2022/07/29 02:53:16;;;;;;;10.20;4.30;;;;;;;16.52;59.74;99289.59;106133;1274;97953;-66
2022/07/29 02:55:50;;;;;;;11.90;4.00;;;;;;;16.50;59.83;99285.10;106142;1274;97854;-64
2022/07/29 02:58:28;;;;;;;11.50;3.60;;;;;;;16.49;59.59;99283.64;106182;1274;111505;-66
2022/07/29 03:01:15;;;;;;;12.10;4.70;;;;;;;16.47;59.88;99279.36;106220;1274;97953;-67
2022/07/29 03:03:53;;;;;;;13.90;3.80;;;;;;;16.44;59.74;99275.08;106145;1274;108403;-66
2022/07/29 03:06:25;;;;;;;11.40;3.60;;;;;;;16.43;59.68;99273.77;105970;1274;97975;-64
2022/07/29 03:09:08;;;;;;;13.80;3.60;;;;;;;16.42;59.86;99274.04;106021;1272;95360;-65
2022/07/29 03:11:42;;;;;;;11.10;4.00;;;;;;;16.41;59.77;99274.33;106108;1271;111953;-67
2022/07/29 03:14:19;;;;;;;11.70;3.70;;;;;;;16.41;59.81;99273.68;106019;1274;97979;-67
2022/07/29 03:16:50;;;;;;;16.10;4.50;;;;;;;16.40;59.87;99276.24;106086;1274;106956;-66
2022/07/29 03:19:20;;;;;;;12.80;4.70;;;;;;;16.40;59.91;99270.17;106051;1274;95254;-67
2022/07/29 03:21:48;;;;;;;14.60;3.80;;;;;;;16.40;59.81;99271.45;106087;1274;98483;-65
2022/07/29 03:24:31;;;;;;;10.70;4.30;;;;;;;16.39;59.73;99265.20;106062;1274;111977;-65
2022/07/29 03:27:00;;;;;;;;;;;;;;;16.39;59.92;99270.26;106026;1274;97909;-66
2022/07/29 03:29:28;;;;;;;13.20;3.60;;;;;;;16.36;59.88;99266.73;106052;1274;108807;-65
2022/07/29 03:32:04;;;;;;;13.70;4.20;;;;;;;16.36;59.96;99268.54;106121;1274;97940;-65
2022/07/29 03:34:37;;;;;;;11.50;3.70;;;;;;;16.35;59.75;99270.00;106147;1274;95270;-65
2022/07/29 03:37:07;;;;;;;11.60;3.80;;;;;;;16.35;59.93;99272.16;106093;1274;112708;-65
2022/07/29 03:39:40;;;;;;;11.20;3.80;;;;;;;16.36;59.96;99274.25;106194;1274;97854;-66
2022/07/29 03:42:12;;;;;;;12.90;3.90;;;;;;;16.37;59.95;99275.20;106194;1274;108405;-65
2022/07/29 03:44:44;;;;;;;11.50;4.00;;;;;;;16.39;59.97;99274.35;106198;1274;97835;-65
2022/07/29 03:47:17;;;;;;;8.40;3.20;;;;;;;16.40;59.98;99271.98;106233;1273;97947;-65
2022/07/29 03:49:52;;;;;;;11.60;4.70;;;;;;;16.41;59.92;99276.90;105241;1274;1117353;-65
2022/07/29 03:52:21;;;;;;;8.60;3.70;;;;;;;16.42;59.95;99275.21;106144;1273;97862;-65
2022/07/29 03:54:49;;;;;;;8.60;3.20;;;;;;;16.41;59.92;99273.25;106078;1273;108401;-65
2022/07/29 03:57:20;;;;;;;13.30;4.00;;;;;;;16.41;59.94;99276.66;106163;1274;98570;-64
2022/07/29 03:59:51;;;;;;;8.10;3.50;;;;;;;16.41;59.74;99275.99;106192;1274;97886;-65
2022/07/29 04:02:22;;;;;;;8.90;3.20;;;;;;;16.41;59.92;99280.29;106186;1274;111682;-64
2022/07/29 04:04:57;;;;;;;10.40;3.20;;;;;;;16.41;59.91;99277.97;106124;1274;96971;-66
2022/07/29 04:07:26;;;;;;;11.10;3.40;;;;;;;16.40;60.08;99277.09;106149;1274;108407;-65
2022/07/29 04:09:54;;;;;;;8.10;3.40;;;;;;;16.40;60.07;99277.13;106167;1274;95193;-68
2022/07/29 04:12:22;;;;;;;10.20;3.50;;;;;;;16.41;59.99;99277.95;106200;1274;97878;-67
2022/07/29 04:14:50;;;;;;;5.40;3.10;;;;;;;16.41;60.03;99276.13;106076;1274;110854;-66
2022/07/29 04:17:18;;;;;;;9.50;3.40;;;;;;;16.42;60.11;99275.48;106111;1274;97872;-65
2022/07/29 04:19:45;;;;;;;7.70;3.10;;;;;;;16.45;60.22;99276.16;106029;1274;108366;-66
2022/07/29 04:22:13;;;;;;;9.90;3.30;;;;;;;16.47;60.16;99267.82;106089;1274;98013;-64
2022/07/29 04:24:42;;;;;;;7.30;3.30;;;;;;;16.50;60.02;99265.23;106164;1274;95254;-67
2022/07/29 04:27:11;;;;;;;5.80;3.00;;;;;;;16.53;59.93;99262.51;106086;1274;111953;-67
2022/07/29 04:29:39;;;;;;;8.20;3.10;;;;;;;16.55;59.97;99262.17;106127;1274;97979;-66
2022/07/29 04:32:26;;;;;;;8.50;2.90;;;;;;;16.58;59.85;99260.60;106058;1274;110566;-64
2022/07/29 04:34:54;;;;;;;7.90;3.00;;;;;;;16.60;59.75;99262.89;106193;1274;98466;-65
2022/07/29 04:37:22;;;;;;;11.40;4.10;;;;;;;16.62;59.93;99265.72;106170;1274;97953;-66
2022/07/29 04:39:50;;;;;;;7.00;3.00;;;;;;;16.66;59.96;99264.45;106158;1274;111759;-67
2022/07/29 04:42:18;;;;;;;12.50;3.70;;;;;;;16.69;59.78;99264.16;106191;1274;98637;-65
2022/07/29 04:44:54;;;;;;;6.30;2.90;;;;;;;16.73;59.91;99261.67;106145;1274;108440;-67
2022/07/29 04:47:22;;;;;;;6.40;2.80;;;;;;;16.76;60.03;99258.84;106119;1274;97956;-67
2022/07/29 04:49:51;;;;;;;6.70;2.80;;;;;;;16.80;59.84;99262.61;106141;1274;95394;-63
2022/07/29 04:52:19;;;;;;;6.90;3.40;;;;;;;16.84;59.80;99267.08;106071;1274;111982;-65
2022/07/29 04:54:48;;;;;;;9.50;3.30;;;;;;;16.87;59.68;99267.70;106165;1274;97988;-63
2022/07/29 04:57:16;;;;;;;8.30;3.10;;;;;;;16.90;59.56;99272.77;106153;1274;107790;-66
2022/07/29 04:59:44;;;;;;;6.60;2.90;;;;;;;16.92;59.57;99275.77;106161;1273;95278;-63
2022/07/29 05:02:12;;;;;;;6.30;2.70;;;;;;;16.96;59.61;99285.30;106164;1274;97865;-62
2022/07/29 05:04:41;;;;;;;8.10;3.00;;;;;;;17.02;59.73;99286.05;106197;1274;111430;-63
2022/07/29 05:07:11;;;;;;;6.40;2.80;;;;;;;17.07;59.65;99285.66;106084;1274;97933;-64
2022/07/29 05:09:40;;;;;;;9.20;3.30;;;;;;;17.13;59.67;99285.14;106087;1274;108746;-66
2022/07/29 05:12:08;;;;;;;10.10;3.10;;;;;;;17.18;59.62;99286.65;106236;1274;97845;-64
2022/07/29 05:14:36;;;;;;;7.40;2.70;;;;;;;17.22;59.82;99287.81;106132;1274;97971;-65
2022/07/29 05:17:04;;;;;;;14.10;3.50;;;;;;;17.27;59.75;99285.02;106070;1274;112316;-67
2022/07/29 05:19:32;;;;;;;8.80;3.00;;;;;;;17.32;59.73;99287.77;106145;1274;97899;-67
2022/07/29 05:22:06;;;;;;;7.20;2.90;;;;;;;17.38;59.81;99284.84;106047;1274;108651;-66
2022/07/29 05:24:34;;;;;;;8.10;3.00;;;;;;;17.43;59.72;99284.23;106123;1273;98619;-64
2022/07/29 05:27:01;;;;;;;12.60;3.30;;;;;;;17.48;59.67;99286.10;106172;1274;97875;-64
2022/07/29 05:29:29;;;;;;;7.40;3.00;;;;;;;17.55;59.59;99284.09;106190;1273;112007;-63
2022/07/29 05:32:13;;;;;;;12.20;3.40;;;;;;;17.63;59.53;99284.20;106134;1274;97952;-66
2022/07/29 05:34:41;;;;;;;7.90;3.10;;;;;;;17.72;59.87;99283.19;106126;1274;108568;-63
2022/07/29 05:37:19;;;;;;;9.00;3.40;;;;;;;17.80;59.51;99282.16;106136;1274;97982;-62
2022/07/29 05:39:48;;;;;;;7.50;3.20;;;;;;;17.89;59.45;99280.59;106062;1274;95269;-63
2022/07/29 05:42:25;;;;;;;7.80;2.50;;;;;;;17.97;59.50;99277.25;106066;1274;111362;-67
2022/07/29 05:44:53;;;;;;;9.50;3.10;;;;;;;18.05;59.39;99275.63;106062;1274;97961;-64
2022/07/29 05:47:23;;;;;;;9.60;3.40;;;;;;;18.13;59.60;99273.56;106103;1273;108327;-65
2022/07/29 05:49:51;;;;;;;14.00;3.70;;;;;;;18.21;59.31;99276.22;106175;1274;97985;-69
2022/07/29 05:52:20;;;;;;;8.90;3.10;;;;;;;18.26;59.40;99273.27;106109;1274;97947;-64
2022/07/29 05:54:48;;;;;;;6.60;3.20;;;;;;;18.34;59.35;99270.43;106154;1272;112088;-67
2022/07/29 05:57:18;;;;;;;10.00;3.20;;;;;;;18.40;59.27;99268.86;106007;1274;96377;-64
2022/07/29 05:59:47;;;;;;;6.80;3.20;;;;;;;18.46;59.33;99273.28;106070;1274;108477;-63
2022/07/29 06:02:16;;;;;;;9.20;2.70;;;;;;;18.52;59.29;99274.23;106087;1274;97874;-62
2022/07/29 06:04:45;;;;;;;9.60;3.00;;;;;;;18.58;59.28;99275.04;106106;1273;98111;-62
2022/07/29 06:07:13;;;;;;;7.00;2.50;;;;;;;18.66;59.14;99273.27;106052;1273;112006;-63
2022/07/29 06:09:40;;;;;;;8.40;2.50;;;;;;;18.73;59.21;99271.44;106067;1274;98617;-67
2022/07/29 06:12:09;;;;;;;6.70;2.90;;;;;;;18.81;59.04;99265.98;106129;1274;108532;-65
2022/07/29 06:14:38;;;;;;;6.40;3.30;;;;;;;18.87;58.92;99256.69;106184;1274;97988;-65
2022/07/29 06:17:06;;;;;;;7.40;3.00;;;;;;;18.95;58.79;99253.02;106230;1274;97947;-66
2022/07/29 06:19:35;;;;;;;9.40;3.00;;;;;;;19.05;58.76;99248.50;106216;1273;111690;-64
2022/07/29 06:22:03;;;;;;;10.00;3.10;;;;;;;19.15;58.67;99250.23;106099;1274;96965;-66
2022/07/29 06:24:31;;;;;;;7.70;2.70;;;;;;;19.24;58.69;99253.52;106062;1274;108307;-65
2022/07/29 06:26:59;;;;;;;6.90;2.70;;;;;;;19.35;58.59;99255.12;106018;1274;97982;-65
2022/07/29 06:29:27;;;;;;;6.30;3.00;;;;;;;19.43;58.59;99254.11;106218;1274;95200;-65
2022/07/29 06:31:56;;;;;;;10.70;3.20;;;;;;;19.53;58.61;99250.76;106172;1274;112023;-64
2022/07/29 06:34:25;;;;;;;8.30;3.30;;;;;;;19.62;58.47;99255.31;106204;1274;97857;-65
2022/07/29 06:36:53;;;;;;;9.10;3.10;;;;;;;19.69;58.29;99258.16;106113;1274;108277;-64
2022/07/29 06:39:23;;;;;;;5.90;2.60;;;;;;;19.76;58.35;99263.13;105930;1274;97851;-64
2022/07/29 06:41:51;;;;;;;5.90;2.70;;;;;;;19.83;58.17;99264.42;106148;1274;97956;-64
2022/07/29 06:44:19;;;;;;;11.60;3.50;;;;;;;19.88;58.19;99266.91;106077;1274;112026;-66
2022/07/29 06:46:49;;;;;;;8.00;2.80;;;;;;;19.94;58.18;99266.46;106059;1274;97973;-64
2022/07/29 06:49:17;;;;;;;7.00;2.50;;;;;;;20.00;57.97;99265.68;106064;1274;107689;-67
2022/07/29 06:51:46;;;;;;;6.70;2.60;;;;;;;20.04;57.83;99261.94;106001;1272;97785;-66
2022/07/29 06:54:14;;;;;;;4.60;2.60;;;;;;;20.10;57.89;99258.47;106055;1274;97906;-65
2022/07/29 06:56:43;;;;;;;8.80;2.70;;;;;;;20.19;57.76;99256.41;106074;1274;114789;-67
2022/07/29 06:59:13;;;;;;;10.00;2.70;;;;;;;20.32;57.61;99258.05;106126;1274;97902;-66
2022/07/29 07:01:43;;;;;;;7.20;2.80;;;;;;;20.42;57.48;99263.36;106208;1274;107539;-65
2022/07/29 07:04:12;;;;;;;7.10;2.70;;;;;;;20.52;57.39;99260.45;106123;1274;98751;-67
2022/07/29 07:06:40;;;;;;;6.20;2.70;;;;;;;20.64;57.44;99259.34;106113;1274;97859;-68
2022/07/29 07:09:09;;;;;;;10.90;3.00;;;;;;;20.77;57.28;99255.17;106170;1274;112037;-67
2022/07/29 07:11:37;;;;;;;6.60;2.60;;;;;;;20.94;57.32;99249.77;106170;1274;98787;-65
2022/07/29 07:14:05;;;;;;;9.40;2.80;;;;;;;21.09;57.40;99239.61;106079;1274;108809;-65
2022/07/29 07:16:36;;;;;;;6.60;2.70;;;;;;;21.28;57.36;99243.45;106099;1274;97883;-66
2022/07/29 07:19:04;;;;;;;11.00;3.20;;;;;;;21.54;57.24;99241.86;106172;1274;97876;-66
2022/07/29 07:21:33;;;;;;;8.80;3.10;;;;;;;21.77;57.09;99244.98;106003;1274;111955;-70
2022/07/29 07:24:03;;;;;;;10.10;3.30;;;;;;;22.06;56.88;99248.38;105945;1274;97983;-71
2022/07/29 07:26:31;;;;;;;7.60;3.10;;;;;;;22.39;56.84;99251.39;106091;1274;106552;-71
2022/07/29 07:29:00;;;;;;;8.80;3.00;;;;;;;22.76;56.96;99252.63;106011;1274;98130;-70
2022/07/29 07:31:28;;;;;;;10.80;2.90;;;;;;;23.08;56.68;99257.43;106089;1273;97891;-65
2022/07/29 07:33:57;;;;;;;5.80;2.70;;;;;;;23.32;56.33;99260.86;106061;1274;111348;-65
2022/07/29 07:36:25;;;;;;;6.00;2.80;;;;;;;23.49;56.20;99259.71;105982;1274;95291;-65
2022/07/29 07:38:53;;;;;;;6.10;3.00;;;;;;;23.62;56.00;99252.44;106053;1274;108333;-66
2022/07/29 07:41:22;;;;;;;10.00;3.90;;;;;;;23.80;55.98;99246.43;106026;1274;97970;-66
2022/07/29 07:43:50;;;;;;;12.40;3.50;;;;;;;24.03;55.89;99247.30;106089;1274;97999;-66
2022/07/29 07:46:19;;;;;;;11.40;3.20;;;;;;;24.42;55.74;99245.56;106029;1274;111407;-65
2022/07/29 07:48:47;;;;;;;9.10;2.80;;;;;;;24.85;55.69;99246.50;106154;1274;95242;-68
2022/07/29 07:51:15;;;;;;;13.50;3.30;;;;;;;25.26;55.44;99248.54;106058;1274;107717;-66
2022/07/29 07:53:44;;;;;;;6.70;2.80;;;;;;;25.76;55.42;99251.73;106135;1274;95277;-64
2022/07/29 07:56:12;;;;;;;6.80;2.70;;;;;;;26.40;55.06;99252.39;106133;1274;97967;-66
2022/07/29 07:58:40;;;;;;;8.00;2.90;;;;;;;27.22;54.72;99251.55;106154;1274;111973;-64
2022/07/29 08:01:09;;;;;;;8.90;3.00;;;;;;;28.11;54.20;99256.45;106113;1274;97586;-66
2022/07/29 08:03:38;;;;;;;7.60;2.80;;;;;;;28.87;53.86;99256.67;106209;1273;107726;-68
2022/07/29 08:06:06;;;;;;;9.90;2.90;;;;;;;29.60;53.52;99257.31;106188;1274;97962;-66
2022/07/29 08:08:35;;;;;;;6.80;2.60;;;;;;;30.36;53.51;99252.56;106233;1274;95275;-66
2022/07/29 08:11:03;;;;;;;5.00;2.70;;;;;;;31.01;53.25;99249.11;106228;1274;111443;-64
2022/07/29 08:13:38;;;;;;;8.70;3.00;;;;;;;31.52;52.50;99248.52;106266;1274;95675;-65
2022/07/29 08:16:14;;;;;;;8.30;2.50;;;;;;;32.04;52.84;99245.01;106206;1273;107707;-67
2022/07/29 08:18:45;;;;;;;5.60;2.90;;;;;;;32.72;52.24;99244.11;106166;1274;97976;-68
2022/07/29 08:21:15;;;;;;;6.80;2.90;;;;;;;33.20;52.48;99243.37;106112;1274;95267;-67
2022/07/29 08:24:42;;;;;;;5.40;2.70;;;;;;;33.50;52.14;99248.94;106077;1273;111490;-65
2022/07/29 08:26:43;;;;;;;8.30;2.70;;;;;;;33.30;51.91;99248.17;106083;1274;98352;-66
2022/07/29 08:29:12;;;;;;;6.40;3.20;;;;;;;33.03;51.73;99250.16;106081;1274;108408;-67
2022/07/29 08:31:47;;;;;;;8.40;2.90;;;;;;;32.70;50.76;99258.13;106095;1274;97957;-68
2022/07/29 08:34:15;;;;;;;7.10;3.00;;;;;;;32.54;50.43;99252.86;106184;1274;97881;-67
2022/07/29 08:36:43;;;;;;;7.20;2.90;;;;;;;32.88;49.85;99256.84;106161;1274;111917;-66
2022/07/29 08:39:17;;;;;;;5.20;2.70;;;;;;;33.18;48.97;99251.79;106170;1274;98443;-66
2022/07/29 08:41:45;;;;;;;7.50;3.00;;;;;;;33.54;48.82;99251.27;106143;1274;108621;-67
2022/07/29 08:44:25;;;;;;;6.90;2.70;;;;;;;34.16;48.64;99249.73;106149;1274;97952;-66
2022/07/29 08:46:58;;;;;;;7.20;2.60;;;;;;;34.50;48.07;99248.35;106106;1274;97953;-67
2022/07/29 08:49:26;;;;;;;6.70;2.70;;;;;;;34.90;47.94;99249.38;106084;1274;111983;-67
2022/07/29 08:51:56;;;;;;;14.10;2.90;;;;;;;35.43;47.36;99244.23;106008;1274;95670;-71
2022/07/29 08:54:27;;;;;;;11.00;3.00;;;;;;;35.66;46.92;99246.14;106108;1274;107771;-71
2022/07/29 08:56:57;;;;;;;9.30;3.50;;;;;;;35.92;46.70;99241.52;106083;1274;97942;-73
2022/07/29 08:59:28;;;;;;;8.60;3.10;;;;;;;36.17;46.72;99245.81;106158;1274;97891;-73
2022/07/29 09:02:00;;;;;;;6.10;2.90;;;;;;;36.32;46.45;99240.54;106106;1274;112064;-71
2022/07/29 09:04:34;;;;;;;8.80;3.00;;;;;;;36.75;45.86;99234.38;106146;1274;98447;-71
2022/07/29 09:07:05;;;;;;;8.70;2.80;;;;;;;36.99;45.65;99231.55;106137;1274;107724;-70
2022/07/29 09:09:34;;;;;;;8.50;3.10;;;;;;;37.18;45.22;99237.23;105991;1274;97869;-71
2022/07/29 09:12:03;;;;;;;5.70;2.50;;;;;;;37.56;44.70;99235.33;106092;1274;95260;-71
2022/07/29 09:14:31;;;;;;;11.20;3.00;;;;;;;37.57;44.41;99235.10;106099;1272;111383;-69
2022/07/29 09:17:00;;;;;;;9.50;2.80;;;;;;;37.51;44.22;99235.76;106081;1274;97006;-68
2022/07/29 09:19:37;;;;;;;7.20;2.70;;;;;;;37.55;43.73;99233.29;106050;1274;109591;-66
2022/07/29 09:22:31;;;;;;;5.10;2.60;;;;;;;37.68;43.06;99232.31;106108;1274;97813;-68
2022/07/29 09:24:59;;;;;;;14.60;3.00;;;;;;;37.84;42.74;99229.93;106136;1274;96294;-67
2022/07/29 09:27:28;;;;;;;12.80;3.40;;;;;;;38.06;42.58;99226.28;106097;1274;112015;-67
2022/07/29 09:30:05;;;;;;;9.20;3.20;;;;;;;38.33;42.09;99216.47;106019;1272;97873;-69
2022/07/29 09:32:54;;;;;;;6.00;2.40;;;;;;;38.57;41.78;99216.42;106065;1274;107714;-69
2022/07/29 09:35:27;;;;;;;6.10;2.80;;;;;;;38.59;41.10;99214.01;106082;1274;96499;-70
2022/07/29 09:38:09;;;;;;;4.20;2.70;;;;;;;38.65;40.88;99204.44;106008;1274;97984;-67
2022/07/29 09:40:39;;;;;;;8.90;2.80;;;;;;;38.53;40.33;99205.73;106055;1274;112114;-69
2022/07/29 09:43:12;;;;;;;11.60;2.80;;;;;;;38.39;40.18;99204.42;106053;1273;95716;-68
2022/07/29 09:45:42;;;;;;;5.70;2.80;;;;;;;37.80;39.90;99199.59;105988;1274;108211;-68
2022/07/29 09:48:19;;;;;;;15.00;3.10;;;;;;;37.32;39.46;99203.39;106115;1274;97979;-69
2022/07/29 09:50:50;;;;;;;6.50;2.90;;;;;;;36.90;38.77;99204.02;106030;1274;97902;-68
2022/07/29 09:53:33;;;;;;;9.40;4.00;;;;;;;36.46;38.86;99202.26;106009;1274;111137;-69
2022/07/29 09:56:06;;;;;;;8.10;3.00;;;;;;;35.96;38.53;99196.36;106083;1274;95664;-70
2022/07/29 09:58:36;;;;;;;5.80;2.90;;;;;;;35.84;38.22;99193.36;106087;1274;107832;-68
2022/07/29 10:01:04;;;;;;;11.20;3.70;;;;;;;35.57;37.94;99193.05;105992;1274;95194;-69
2022/07/29 10:03:52;;;;;;;12.10;4.00;;;;;;;35.31;37.65;99189.95;106059;1274;98698;-68
2022/07/29 10:06:20;;;;;;;11.20;3.70;;;;;;;34.96;37.27;99189.05;106138;1274;112029;-69
2022/07/29 10:08:53;;;;;;;8.10;3.10;;;;;;;34.68;37.26;99192.13;106079;1274;96490;-68
2022/07/29 10:11:21;;;;;;;11.50;3.20;;;;;;;34.39;37.13;99189.19;106102;1274;106530;-68
2022/07/29 10:13:49;;;;;;;7.90;3.00;;;;;;;34.03;36.87;99187.20;106046;1272;98608;-70
2022/07/29 10:16:19;;;;;;;6.20;3.10;;;;;;;33.51;36.66;99190.15;106097;1271;96762;-69
2022/07/29 10:18:47;;;;;;;10.20;2.90;;;;;;;33.11;36.26;99184.86;106017;1274;112102;-69
2022/07/29 10:21:18;;;;;;;7.00;2.80;;;;;;;32.89;36.58;99185.08;106124;1274;98370;-68
2022/07/29 10:24:07;;;;;;;7.50;3.00;;;;;;;32.60;36.35;99188.21;106023;1274;108389;-69
2022/07/29 10:26:47;;;;;;;6.30;2.80;;;;;;;32.31;36.13;99187.07;106085;1272;97038;-71
2022/07/29 10:29:15;;;;;;;7.80;3.20;;;;;;;32.11;36.22;99190.05;106084;1273;98582;-69
2022/07/29 10:32:10;;;;;;;6.80;3.00;;;;;;;31.81;36.02;99193.24;106135;1274;111790;-69
2022/07/29 10:35:01;;;;;;;5.90;2.80;;;;;;;31.42;36.15;99190.79;106118;1274;97917;-68
2022/07/29 10:37:38;;;;;;;;;;;;;;;31.16;36.03;99185.17;106005;1274;109075;-68
2022/07/29 10:43:35;;;;;;;14.20;3.30;;;;;;;30.67;36.03;99182.07;107094;1274;95888;-68
2022/07/29 10:46:05;;;;;;;8.40;3.30;;;;;;;30.51;36.01;99181.30;106015;1273;111390;-69
2022/07/29 10:49:07;;;;;;;5.90;2.80;;;;;;;30.35;35.76;99180.45;106647;1273;95743;-67
2022/07/29 10:52:04;;;;;;;9.00;3.10;;;;;;;30.20;35.93;99182.80;106080;1274;107816;-68
2022/07/29 10:54:53;;;;;;;6.10;3.00;;;;;;;30.04;35.90;99180.42;106065;1274;98163;-68
2022/07/29 10:57:31;;;;;;;10.90;2.70;;;;;;;29.89;36.09;99177.54;106146;1274;97899;-68
2022/07/29 11:00:30;;;;;;;6.50;3.10;;;;;;;29.80;36.08;99181.92;106054;1274;112067;-69
2022/07/29 11:03:01;;;;;;;9.10;3.10;;;;;;;29.68;36.16;99180.52;106129;1274;98339;-69
2022/07/29 11:05:55;;;;;;;8.50;2.90;;;;;;;29.55;35.95;99183.80;106184;1274;108328;-69
2022/07/29 11:08:30;;;;;;;9.90;3.30;;;;;;;29.44;36.16;99184.29;106214;1274;97830;-69
2022/07/29 11:11:33;;;;;;;;;;;;;;;29.37;36.13;99178.77;106157;1274;95249;-68
2022/07/29 11:14:04;;;;;;;12.50;3.20;;;;;;;29.26;36.23;99177.52;105854;1274;111635;-68
2022/07/29 11:17:07;;;;;;;16.10;4.10;;;;;;;29.19;36.27;99176.39;106753;1274;98418;-65
2022/07/29 11:19:42;;;;;;;6.60;3.10;;;;;;;29.11;36.16;99176.30;106127;1274;108267;-69
2022/07/29 11:22:37;;;;;;;7.70;3.10;;;;;;;29.04;36.30;99171.70;106202;1274;98003;-66
2022/07/29 11:25:19;;;;;;;8.60;3.00;;;;;;;28.93;36.22;99173.27;106238;1274;95368;-65
2022/07/29 11:28:21;;;;;;;8.30;3.20;;;;;;;28.89;36.50;99167.68;106229;1274;112025;-67
2022/07/29 11:30:56;;;;;;;16.90;3.20;;;;;;;28.87;36.70;99164.34;106215;1274;95521;-68
2022/07/29 11:33:33;;;;;;;7.30;3.30;;;;;;;28.88;36.70;99167.05;106231;1274;105869;-67
2022/07/29 11:36:21;;;;;;;7.20;3.30;;;;;;;28.94;36.82;99157.80;106131;1274;98573;-67
2022/07/29 11:39:28;;;;;;;9.50;3.40;;;;;;;28.96;36.67;99158.73;106270;1274;97869;-69
2022/07/29 11:42:24;;;;;;;9.30;3.40;;;;;;;28.90;36.78;99154.87;106231;1274;114130;-69
2022/07/29 11:45:05;;;;;;;9.70;3.80;;;;;;;28.86;36.78;99156.59;106210;1274;96979;-68
2022/07/29 11:48:00;;;;;;;12.80;3.80;;;;;;;28.81;36.89;99151.47;106197;1272;108362;-66
2022/07/29 11:50:50;;;;;;;7.30;3.40;;;;;;;28.85;37.15;99148.78;106114;1274;97850;-67
2022/07/29 11:53:23;;;;;;;7.80;3.30;;;;;;;28.89;37.07;99143.38;106205;1273;97832;-69